Time;durP1;ratioP1;P1;durP2;ratioP2;P2;SDS_P1;SDS_P2;PMS_P1;PMS_P2;Temp;Humidity;BMP_temperature;BMP_pressure;BME280_temperature;BME280_humidity;BME280_pressure;Samples;Min_cycle;Max_cycle;Signal;HPM_P1;HPM_P2
2022/07/27 00:00:35;;;;;;;0.93;0.70;;;21.80;45.50;;;;;;5046037;28;20028;-60
2022/07/27 00:03:00;;;;;;;1.88;0.75;;;21.80;45.50;;;;;;5063536;28;20044;-59
2022/07/27 00:05:26;;;;;;;1.70;1.00;;;21.80;45.70;;;;;;5043547;28;20037;-59
2022/07/27 00:07:52;;;;;;;1.67;1.00;;;21.70;45.80;;;;;;5062682;28;20032;-59
2022/07/27 00:10:17;;;;;;;1.50;1.13;;;21.70;46.00;;;;;;5042895;28;20037;-61
2022/07/27 00:12:43;;;;;;;2.85;1.00;;;21.70;46.20;;;;;;5060380;28;20041;-60
2022/07/27 00:15:09;;;;;;;2.88;1.10;;;21.60;46.10;;;;;;5062043;28;20056;-59
2022/07/27 00:17:35;;;;;;;1.23;0.90;;;21.60;46.20;;;;;;5062008;28;20025;-59
2022/07/27 00:20:01;;;;;;;1.60;0.98;;;21.60;46.00;;;;;;5043582;28;20037;-61
2022/07/27 00:22:27;;;;;;;0.93;0.73;;;21.50;46.10;;;;;;5024484;28;20026;-60
2022/07/27 00:24:53;;;;;;;1.48;0.88;;;21.40;46.10;;;;;;5061555;28;20025;-59
2022/07/27 00:27:18;;;;;;;2.30;0.85;;;21.30;46.00;;;;;;5042622;28;20029;-61
2022/07/27 00:29:47;;;;;;;0.80;0.70;;;21.30;46.20;;;;;;5062479;28;20053;-60
2022/07/27 00:32:12;;;;;;;2.55;0.95;;;21.20;46.20;;;;;;5042285;28;20097;-59
2022/07/27 00:34:38;;;;;;;2.45;1.38;;;21.10;46.30;;;;;;5045699;28;20029;-59
2022/07/27 00:37:04;;;;;;;2.63;1.70;;;21.00;46.40;;;;;;5045916;28;20030;-61
2022/07/27 00:39:30;;;;;;;3.65;1.90;;;21.00;46.70;;;;;;5062351;28;20035;-59
2022/07/27 00:41:56;;;;;;;2.28;1.33;;;20.90;46.70;;;;;;5042093;28;20053;-60
2022/07/27 00:44:26;;;;;;;1.42;1.02;;;20.80;46.90;;;;;;5061987;28;20056;-59
2022/07/27 00:46:53;;;;;;;3.33;1.00;;;20.80;47.30;;;;;;5041995;28;20029;-60
2022/07/27 00:49:19;;;;;;;3.70;1.00;;;20.70;47.20;;;;;;5062281;28;20020;-61
2022/07/27 00:51:45;;;;;;;4.65;0.90;;;20.70;47.40;;;;;;5042318;28;20060;-59
2022/07/27 00:54:10;;;;;;;1.98;1.00;;;20.60;47.30;;;;;;5061697;28;20032;-60
2022/07/27 00:56:36;;;;;;;3.05;0.95;;;20.60;47.40;;;;;;5052679;28;20039;-59
2022/07/27 00:59:02;;;;;;;2.95;1.23;;;20.50;47.60;;;;;;5042985;28;20044;-61
2022/07/27 01:01:28;;;;;;;2.65;1.10;;;20.50;48.30;;;;;;5060649;28;20029;-59
2022/07/27 01:03:54;;;;;;;1.13;1.00;;;20.50;48.60;;;;;;5042895;28;20049;-60
2022/07/27 01:06:20;;;;;;;5.63;0.80;;;20.50;48.90;;;;;;5052698;28;20029;-59
2022/07/27 01:08:45;;;;;;;4.95;1.20;;;20.50;49.00;;;;;;5061610;28;20066;-61
2022/07/27 01:11:11;;;;;;;2.00;1.00;;;20.50;49.00;;;;;;5047998;28;20036;-60
2022/07/27 01:13:37;;;;;;;2.95;0.93;;;20.40;49.00;;;;;;5045385;28;20033;-60
2022/07/27 01:16:05;;;;;;;2.40;0.90;;;20.50;48.80;;;;;;5054642;28;20037;-61
2022/07/27 01:18:36;;;;;;;7.32;1.45;;;20.40;49.00;;;;;;5061957;28;20071;-61
2022/07/27 01:21:04;;;;;;;1.65;1.00;;;20.40;49.30;;;;;;5026642;28;20040;-61
2022/07/27 01:23:33;;;;;;;2.53;0.90;;;20.40;49.00;;;;;;5061238;28;20776;-59
2022/07/27 01:26:00;;;;;;;2.70;0.95;;;20.40;48.90;;;;;;5041205;28;20213;-59
2022/07/27 01:28:26;;;;;;;3.35;1.17;;;20.40;48.90;;;;;;5060835;28;20064;-59
2022/07/27 01:30:53;;;;;;;1.15;0.95;;;20.40;49.00;;;;;;5057728;28;20025;-60
2022/07/27 01:33:24;;;;;;;1.73;0.90;;;20.40;49.10;;;;;;5061321;28;20037;-59
2022/07/27 01:35:54;;;;;;;3.65;0.90;;;20.40;49.10;;;;;;5021675;28;20037;-59
2022/07/27 01:38:21;;;;;;;2.00;1.30;;;20.30;49.20;;;;;;5022619;28;20047;-60
2022/07/27 01:40:48;;;;;;;4.25;1.40;;;20.30;49.50;;;;;;5059666;28;20033;-59
2022/07/27 01:43:14;;;;;;;1.48;1.02;;;20.30;49.70;;;;;;5061899;28;20079;-60
2022/07/27 01:45:39;;;;;;;1.70;1.05;;;20.20;49.90;;;;;;5041943;28;20029;-66
2022/07/27 01:48:05;;;;;;;2.08;1.15;;;20.20;49.90;;;;;;5061142;28;20040;-66
2022/07/27 01:50:31;;;;;;;3.83;1.70;;;20.20;50.10;;;;;;5041212;28;20040;-66
2022/07/27 01:52:57;;;;;;;3.78;1.00;;;20.20;50.30;;;;;;5061296;28;20080;-65
2022/07/27 01:55:22;;;;;;;1.65;1.08;;;20.20;50.30;;;;;;5042222;28;20041;-66
2022/07/27 01:57:53;;;;;;;6.85;1.13;;;20.30;50.50;;;;;;5041903;28;20029;-65
2022/07/27 02:00:19;;;;;;;1.73;0.82;;;20.20;50.80;;;;;;5021006;28;20538;-65
2022/07/27 02:02:45;;;;;;;1.58;1.10;;;20.30;50.30;;;;;;5041346;28;20053;-66
2022/07/27 02:05:11;;;;;;;2.38;1.02;;;20.20;50.40;;;;;;5059487;28;20033;-65
2022/07/27 02:07:41;;;;;;;1.92;1.20;;;20.20;50.60;;;;;;5041424;28;20101;-66
2022/07/27 02:10:08;;;;;;;1.70;1.00;;;20.20;50.70;;;;;;5061555;28;20098;-65
2022/07/27 02:12:34;;;;;;;1.92;0.80;;;20.20;50.80;;;;;;5040887;28;20052;-65
2022/07/27 02:15:10;;;;;;;3.33;1.17;;;20.20;50.70;;;;;;5060339;28;20028;-65
2022/07/27 02:17:36;;;;;;;5.30;1.05;;;20.10;50.70;;;;;;5037481;28;20037;-66
2022/07/27 02:20:04;;;;;;;2.58;0.95;;;20.20;50.90;;;;;;5061057;28;20474;-67
2022/07/27 02:22:30;;;;;;;2.15;0.90;;;20.10;51.00;;;;;;5041706;28;20033;-66
2022/07/27 02:24:56;;;;;;;1.65;0.93;;;20.10;50.80;;;;;;5064461;28;20025;-66
2022/07/27 02:27:21;;;;;;;2.30;1.15;;;20.10;51.00;;;;;;5045261;28;20025;-66
2022/07/27 02:29:47;;;;;;;3.10;1.00;;;20.20;51.20;;;;;;5064428;28;20052;-67
2022/07/27 02:32:13;;;;;;;1.55;0.93;;;20.10;51.10;;;;;;5044861;28;20040;-65
2022/07/27 02:34:39;;;;;;;1.75;0.93;;;20.20;51.40;;;;;;5064191;28;20040;-66
2022/07/27 02:37:05;;;;;;;2.47;1.00;;;20.20;51.20;;;;;;5044609;28;20092;-65
2022/07/27 02:39:30;;;;;;;2.55;1.00;;;20.20;51.40;;;;;;5064683;28;20033;-67
2022/07/27 02:41:56;;;;;;;2.92;1.10;;;20.20;51.50;;;;;;5054929;28;20029;-66
2022/07/27 02:44:22;;;;;;;1.00;0.90;;;20.20;51.50;;;;;;5045469;28;20045;-66
2022/07/27 02:46:47;;;;;;;3.92;1.00;;;20.20;51.30;;;;;;5063258;28;20057;-65
2022/07/27 02:49:13;;;;;;;4.55;1.10;;;20.20;51.50;;;;;;5045604;28;20369;-66
2022/07/27 02:51:40;;;;;;;1.88;0.90;;;20.20;51.40;;;;;;5063296;28;20043;-67
2022/07/27 02:54:06;;;;;;;4.80;1.25;;;20.20;51.90;;;;;;5045355;28;20029;-66
2022/07/27 02:56:32;;;;;;;1.05;0.90;;;20.20;51.40;;;;;;5049358;28;20034;-67
2022/07/27 02:58:57;;;;;;;2.58;1.10;;;20.30;51.40;;;;;;5045072;28;20026;-66
2022/07/27 03:01:23;;;;;;;3.03;1.15;;;20.20;51.20;;;;;;5055159;28;20053;-66
2022/07/27 03:03:49;;;;;;;5.28;1.17;;;20.20;51.10;;;;;;5063893;28;20110;-66
2022/07/27 03:06:14;;;;;;;5.93;1.60;;;20.20;51.20;;;;;;5042735;28;20033;-66
2022/07/27 03:08:40;;;;;;;3.22;1.27;;;20.20;51.40;;;;;;5057538;28;20057;-67
2022/07/27 03:11:07;;;;;;;1.48;1.10;;;20.20;51.30;;;;;;5060115;28;20061;-67
2022/07/27 03:13:33;;;;;;;6.82;1.20;;;20.10;51.50;;;;;;5048124;28;20034;-66
2022/07/27 03:15:59;;;;;;;4.00;1.10;;;20.10;51.60;;;;;;5060480;28;20527;-66
2022/07/27 03:18:24;;;;;;;3.60;1.23;;;20.10;51.80;;;;;;5064233;28;20100;-66
2022/07/27 03:20:50;;;;;;;1.58;0.90;;;20.00;51.70;;;;;;5043881;28;20040;-66
2022/07/27 03:23:19;;;;;;;1.88;0.88;;;20.00;51.60;;;;;;5063459;28;20068;-67
2022/07/27 03:25:44;;;;;;;2.70;1.17;;;20.00;51.90;;;;;;5043931;28;20036;-66
2022/07/27 03:28:10;;;;;;;1.58;1.10;;;20.00;51.60;;;;;;5057648;28;20063;-67
2022/07/27 03:30:36;;;;;;;4.28;1.20;;;19.90;51.80;;;;;;5044728;28;20029;-66
2022/07/27 03:33:01;;;;;;;1.67;1.15;;;19.90;51.90;;;;;;5043916;28;20026;-66
2022/07/27 03:35:27;;;;;;;3.60;1.15;;;20.00;52.10;;;;;;5063391;28;20147;-68
2022/07/27 03:37:53;;;;;;;2.03;0.93;;;19.90;52.00;;;;;;5043516;28;20033;-66
2022/07/27 03:40:19;;;;;;;1.83;1.02;;;19.90;52.10;;;;;;5063386;28;20039;-66
2022/07/27 03:42:44;;;;;;;2.53;1.13;;;20.00;52.10;;;;;;5028255;28;20041;-67
2022/07/27 03:45:10;;;;;;;3.30;1.08;;;19.90;52.10;;;;;;5062491;28;20025;-66
2022/07/27 03:47:36;;;;;;;4.00;1.58;;;19.90;52.00;;;;;;5043338;28;20119;-67
2022/07/27 03:50:03;;;;;;;3.17;1.00;;;20.00;52.10;;;;;;5060230;28;20085;-67
2022/07/27 03:52:28;;;;;;;5.82;1.27;;;19.90;52.20;;;;;;5049431;28;20060;-67
2022/07/27 03:54:56;;;;;;;4.13;1.10;;;20.00;52.20;;;;;;5050553;28;20151;-67
2022/07/27 03:57:22;;;;;;;2.67;1.30;;;20.00;52.30;;;;;;5050274;28;20033;-67
2022/07/27 03:59:48;;;;;;;1.70;1.10;;;20.00;52.30;;;;;;5063383;28;20029;-66
2022/07/27 04:02:13;;;;;;;5.40;1.40;;;20.00;52.40;;;;;;5053591;28;20040;-67
2022/07/27 04:04:39;;;;;;;4.82;1.27;;;20.00;52.40;;;;;;5043992;28;20397;-65
2022/07/27 04:07:04;;;;;;;1.23;0.90;;;20.00;52.40;;;;;;5052455;28;20116;-67
2022/07/27 04:09:30;;;;;;;2.95;1.05;;;20.00;52.30;;;;;;5063048;28;20071;-66
2022/07/27 04:11:56;;;;;;;5.50;1.42;;;20.00;52.40;;;;;;5043278;28;20032;-67
2022/07/27 04:14:21;;;;;;;4.43;1.20;;;20.10;52.50;;;;;;5033319;28;20507;-67
2022/07/27 04:16:47;;;;;;;3.88;1.13;;;20.10;52.50;;;;;;5060769;28;20456;-66
2022/07/27 04:19:13;;;;;;;2.25;1.10;;;20.10;52.50;;;;;;5063563;28;20029;-66
2022/07/27 04:21:38;;;;;;;2.00;0.98;;;20.10;52.40;;;;;;5042821;28;20032;-66
2022/07/27 04:24:05;;;;;;;4.97;1.20;;;20.10;52.50;;;;;;5056659;28;20476;-66
2022/07/27 04:26:31;;;;;;;1.85;0.90;;;20.20;52.40;;;;;;5042664;28;20022;-67
2022/07/27 04:28:57;;;;;;;2.63;1.17;;;20.20;52.40;;;;;;5061762;28;20084;-67
2022/07/27 04:31:22;;;;;;;1.83;0.82;;;20.20;52.40;;;;;;5045203;28;20036;-67
2022/07/27 04:33:48;;;;;;;1.00;0.80;;;20.20;52.30;;;;;;5063271;28;20025;-66
2022/07/27 04:36:14;;;;;;;4.68;1.10;;;20.20;52.20;;;;;;5043414;28;20033;-67
2022/07/27 04:38:39;;;;;;;2.60;1.08;;;20.20;52.30;;;;;;5063208;28;20055;-66
2022/07/27 04:41:05;;;;;;;4.10;0.90;;;20.20;52.60;;;;;;5043126;28;20034;-67
2022/07/27 04:43:31;;;;;;;2.47;1.02;;;20.30;52.40;;;;;;5061564;28;20065;-66
2022/07/27 04:45:56;;;;;;;2.13;1.10;;;20.30;52.40;;;;;;5042265;28;20076;-66
2022/07/27 04:48:22;;;;;;;2.05;1.48;;;20.30;52.30;;;;;;5041280;28;20033;-67
2022/07/27 04:50:48;;;;;;;4.25;1.05;;;20.30;52.20;;;;;;5061999;28;20028;-67
2022/07/27 04:53:15;;;;;;;2.95;0.93;;;20.40;52.40;;;;;;5042208;28;20025;-67
2022/07/27 04:55:42;;;;;;;1.48;0.98;;;20.40;52.20;;;;;;5062367;28;20025;-66
2022/07/27 04:58:08;;;;;;;3.88;1.05;;;20.40;52.20;;;;;;5044115;28;20025;-67
2022/07/27 05:00:34;;;;;;;3.42;1.35;;;20.50;52.20;;;;;;5061893;28;20044;-66
2022/07/27 05:03:00;;;;;;;2.10;1.00;;;20.50;52.40;;;;;;5027159;28;20034;-67
2022/07/27 05:05:25;;;;;;;4.18;1.50;;;20.50;52.40;;;;;;5059622;28;20094;-66
2022/07/27 05:07:51;;;;;;;6.13;1.13;;;20.60;52.30;;;;;;5041979;28;20029;-66
2022/07/27 05:10:17;;;;;;;3.22;1.20;;;20.60;52.20;;;;;;5058316;28;20034;-66
2022/07/27 05:12:43;;;;;;;3.42;1.02;;;20.60;52.20;;;;;;5047759;28;20120;-65
2022/07/27 05:15:09;;;;;;;1.70;0.85;;;20.70;52.20;;;;;;5061661;28;20120;-66
2022/07/27 05:17:35;;;;;;;3.60;1.08;;;20.70;52.20;;;;;;5041825;28;20366;-66
2022/07/27 05:20:01;;;;;;;1.38;0.82;;;20.70;52.10;;;;;;5061158;28;20050;-67
2022/07/27 05:22:27;;;;;;;1.80;0.90;;;20.80;52.20;;;;;;5042045;28;20097;-67
2022/07/27 05:24:52;;;;;;;1.30;1.00;;;20.80;52.00;;;;;;5060979;28;20065;-65
2022/07/27 05:27:18;;;;;;;3.00;1.20;;;20.90;52.00;;;;;;5041629;28;20029;-68
2022/07/27 05:29:44;;;;;;;4.35;1.20;;;20.90;51.80;;;;;;5061303;28;20060;-66
2022/07/27 05:32:09;;;;;;;4.70;1.17;;;21.00;51.90;;;;;;5041697;28;20034;-67
2022/07/27 05:34:35;;;;;;;3.05;1.08;;;21.00;51.90;;;;;;5061587;28;20037;-66
2022/07/27 05:37:01;;;;;;;2.60;1.00;;;21.00;51.80;;;;;;5047315;28;20028;-67
2022/07/27 05:39:26;;;;;;;3.22;1.20;;;21.10;51.70;;;;;;5062313;28;20083;-67
2022/07/27 05:41:52;;;;;;;3.78;1.20;;;21.10;51.70;;;;;;5045804;28;20029;-66
2022/07/27 05:44:18;;;;;;;2.30;1.23;;;21.20;51.70;;;;;;5061550;28;20074;-66
2022/07/27 05:46:43;;;;;;;2.83;1.17;;;21.20;51.70;;;;;;5041554;28;20499;-65
2022/07/27 05:49:09;;;;;;;2.33;1.27;;;21.30;51.60;;;;;;5061450;28;20515;-66
2022/07/27 05:51:35;;;;;;;1.70;0.95;;;21.30;51.60;;;;;;5043426;28;20079;-66
2022/07/27 05:54:01;;;;;;;1.45;0.90;;;21.40;51.70;;;;;;5062221;28;20476;-67
2022/07/27 05:56:27;;;;;;;3.75;1.10;;;21.40;51.60;;;;;;5040794;28;20503;-66
2022/07/27 05:58:53;;;;;;;5.90;1.25;;;21.50;51.40;;;;;;5063925;28;20063;-67
2022/07/27 06:01:19;;;;;;;3.38;1.10;;;21.60;51.30;;;;;;5044894;28;20037;-66
2022/07/27 06:03:44;;;;;;;1.23;1.00;;;21.70;51.20;;;;;;5064058;28;20055;-66
2022/07/27 06:08:54;;;;;;;2.22;1.15;;;21.80;50.90;;;;;;5026048;28;20034;-67
2022/07/27 06:11:20;;;;;;;2.03;1.00;;;21.80;50.70;;;;;;5053347;28;20083;-67
2022/07/27 06:13:46;;;;;;;2.65;1.10;;;21.80;50.60;;;;;;5044804;28;20030;-66
2022/07/27 06:16:12;;;;;;;1.73;1.10;;;21.90;50.70;;;;;;5064187;28;20097;-67
2022/07/27 06:18:37;;;;;;;2.08;1.10;;;22.00;50.70;;;;;;5045083;28;20037;-66
2022/07/27 06:21:03;;;;;;;5.30;1.05;;;22.00;50.70;;;;;;5064612;28;20531;-63
2022/07/27 06:23:29;;;;;;;4.43;1.35;;;22.10;50.40;;;;;;5044855;28;20085;-65
2022/07/27 06:25:56;;;;;;;2.45;1.15;;;22.20;50.10;;;;;;5065277;28;20029;-64
2022/07/27 06:28:22;;;;;;;5.22;1.30;;;22.20;49.90;;;;;;5051030;28;20084;-66
2022/07/27 06:30:48;;;;;;;8.15;1.25;;;22.20;49.90;;;;;;5065376;28;20032;-66
2022/07/27 06:33:14;;;;;;;3.13;1.30;;;22.20;50.00;;;;;;5044858;28;20033;-65
2022/07/27 06:35:40;;;;;;;2.20;1.02;;;22.20;50.20;;;;;;5064595;28;20040;-67
2022/07/27 06:38:07;;;;;;;4.15;1.52;;;22.30;50.70;;;;;;5044309;28;20055;-66
2022/07/27 06:40:34;;;;;;;2.88;1.60;;;22.30;50.20;;;;;;5064484;28;20139;-64
2022/07/27 06:43:00;;;;;;;5.43;1.58;;;22.40;50.20;;;;;;5044509;28;20041;-63
2022/07/27 06:45:26;;;;;;;3.28;1.35;;;22.40;50.00;;;;;;5064230;28;20061;-64
2022/07/27 06:47:51;;;;;;;8.88;1.60;;;22.40;50.00;;;;;;5044652;28;20025;-66
2022/07/27 06:50:19;;;;;;;2.30;1.25;;;22.50;50.00;;;;;;5064362;28;20040;-65
2022/07/27 06:52:45;;;;;;;2.67;1.20;;;22.50;49.90;;;;;;5054037;28;20025;-65
2022/07/27 06:55:12;;;;;;;3.83;1.42;;;22.50;49.90;;;;;;5045097;28;20107;-66
2022/07/27 06:57:37;;;;;;;4.93;1.20;;;22.50;49.80;;;;;;5063017;28;20033;-66
2022/07/27 07:00:05;;;;;;;2.40;1.23;;;22.50;49.70;;;;;;5045315;28;20041;-67
2022/07/27 07:02:31;;;;;;;3.78;1.50;;;22.50;49.60;;;;;;5055523;28;20053;-67
2022/07/27 07:04:57;;;;;;;4.80;1.35;;;22.50;49.60;;;;;;5063826;28;20037;-67
2022/07/27 07:07:23;;;;;;;7.65;1.42;;;22.60;49.70;;;;;;5044263;28;20021;-63
2022/07/27 07:09:49;;;;;;;3.63;1.70;;;22.60;49.70;;;;;;5063088;28;20035;-67
2022/07/27 07:12:17;;;;;;;4.22;1.30;;;22.60;49.80;;;;;;5044458;28;20477;-67
2022/07/27 07:14:43;;;;;;;6.07;1.30;;;22.60;49.80;;;;;;5029312;28;20025;-66
2022/07/27 07:17:09;;;;;;;2.90;1.00;;;22.70;49.80;;;;;;5057881;28;20026;-67
2022/07/27 07:19:34;;;;;;;3.60;1.48;;;22.70;49.70;;;;;;5063961;28;20033;-65
2022/07/27 07:22:00;;;;;;;5.63;1.48;;;22.80;49.60;;;;;;5043903;28;20064;-66
2022/07/27 07:24:28;;;;;;;3.30;1.30;;;22.80;49.70;;;;;;5054820;28;20045;-65
2022/07/27 07:26:53;;;;;;;3.88;1.23;;;22.80;49.80;;;;;;5062582;28;20029;-66
2022/07/27 07:29:20;;;;;;;3.15;1.27;;;22.90;49.80;;;;;;5064256;28;20549;-67
2022/07/27 07:31:45;;;;;;;3.95;1.33;;;23.00;49.80;;;;;;5044046;28;20049;-63
2022/07/27 07:34:11;;;;;;;2.10;1.40;;;23.00;49.70;;;;;;5063223;28;20032;-66
2022/07/27 07:36:37;;;;;;;3.53;1.50;;;23.10;49.50;;;;;;5044514;28;20033;-65
2022/07/27 07:39:03;;;;;;;4.65;1.60;;;23.20;49.40;;;;;;5062660;28;20040;-67
2022/07/27 07:41:29;;;;;;;3.58;1.80;;;23.20;49.40;;;;;;5044152;28;20048;-67
2022/07/27 07:43:55;;;;;;;3.40;1.33;;;23.20;49.40;;;;;;5025934;28;20046;-67
2022/07/27 07:46:20;;;;;;;2.30;1.52;;;23.20;49.40;;;;;;5063252;28;20058;-64
2022/07/27 07:48:46;;;;;;;3.08;1.30;;;23.30;49.30;;;;;;5043271;28;20029;-67
2022/07/27 07:51:12;;;;;;;3.72;1.70;;;23.30;49.50;;;;;;5049133;28;20044;-69
2022/07/27 07:53:37;;;;;;;2.92;1.35;;;23.50;49.40;;;;;;5046471;28;20021;-67
2022/07/27 07:56:03;;;;;;;4.38;1.60;;;23.60;49.20;;;;;;5063024;28;20476;-65
2022/07/27 07:58:30;;;;;;;4.03;1.52;;;23.80;48.80;;;;;;5043395;28;20029;-67
2022/07/27 08:00:55;;;;;;;3.47;1.60;;;23.90;48.30;;;;;;5063050;28;20025;-65
2022/07/27 08:03:21;;;;;;;2.30;1.38;;;24.00;48.00;;;;;;5043477;28;20048;-65
2022/07/27 08:05:47;;;;;;;3.08;1.55;;;24.10;47.90;;;;;;5062860;28;20036;-67
2022/07/27 08:08:12;;;;;;;3.47;1.50;;;24.20;48.10;;;;;;5042862;28;20038;-67
2022/07/27 08:10:38;;;;;;;2.00;1.52;;;24.30;48.30;;;;;;5062719;28;20088;-65
2022/07/27 08:13:04;;;;;;;6.65;1.40;;;24.50;47.70;;;;;;5045576;28;20077;-67
2022/07/27 08:15:30;;;;;;;6.80;1.30;;;24.60;47.60;;;;;;5062241;28;20112;-67
2022/07/27 08:17:56;;;;;;;5.18;1.30;;;24.70;47.20;;;;;;5042828;28;20025;-66
2022/07/27 08:20:23;;;;;;;6.20;1.95;;;24.90;46.90;;;;;;5061406;28;20029;-66
2022/07/27 08:22:49;;;;;;;4.47;1.20;;;25.00;46.90;;;;;;5050197;28;20025;-66
2022/07/27 08:25:15;;;;;;;3.20;1.23;;;25.10;46.70;;;;;;5043344;28;20033;-63
2022/07/27 08:27:41;;;;;;;3.22;1.35;;;25.20;46.10;;;;;;5055037;28;20120;-66
2022/07/27 08:30:08;;;;;;;6.25;1.40;;;25.30;45.70;;;;;;5063394;28;20044;-67
2022/07/27 08:32:49;;;;;;;4.15;1.50;;;25.30;45.60;;;;;;5047716;28;20035;-67
2022/07/27 08:35:17;;;;;;;2.47;1.42;;;25.40;45.90;;;;;;5062138;28;20404;-66
2022/07/27 08:37:42;;;;;;;4.38;1.80;;;25.50;45.90;;;;;;5047769;28;20033;-65
2022/07/27 08:40:08;;;;;;;5.03;1.50;;;25.60;45.50;;;;;;5060693;28;20191;-66
2022/07/27 08:42:34;;;;;;;2.00;1.10;;;25.70;44.90;;;;;;5055616;28;20048;-66
2022/07/27 08:45:02;;;;;;;3.55;1.40;;;25.70;45.30;;;;;;5062081;28;20033;-66
2022/07/27 08:47:29;;;;;;;3.13;0.95;;;25.80;45.50;;;;;;5042056;28;20029;-66
2022/07/27 08:49:55;;;;;;;6.65;1.63;;;25.90;45.40;;;;;;5062135;28;20454;-67
2022/07/27 08:52:22;;;;;;;4.45;1.30;;;26.10;45.30;;;;;;5045608;28;20395;-64
2022/07/27 08:54:48;;;;;;;3.83;1.70;;;26.20;44.80;;;;;;5062587;28;20084;-65
2022/07/27 08:57:14;;;;;;;2.67;1.23;;;26.30;43.70;;;;;;5042043;28;20037;-64
2022/07/27 08:59:39;;;;;;;4.20;1.10;;;26.30;43.70;;;;;;5061816;28;20059;-65
2022/07/27 09:02:09;;;;;;;4.78;2.17;;;26.30;44.10;;;;;;5042722;28;20553;-66
2022/07/27 09:04:38;;;;;;;4.57;1.70;;;26.30;43.50;;;;;;5062512;28;20044;-65
2022/07/27 09:07:04;;;;;;;6.93;1.25;;;26.40;43.50;;;;;;5042044;28;20033;-65
2022/07/27 09:09:43;;;;;;;6.65;1.65;;;26.40;43.20;;;;;;5060464;28;20159;-64
2022/07/27 09:12:10;;;;;;;5.45;1.60;;;26.50;42.90;;;;;;5024114;28;20500;-67
2022/07/27 09:14:38;;;;;;;2.25;1.20;;;26.60;42.60;;;;;;5029401;28;20057;-66
2022/07/27 09:17:26;;;;;;;2.97;1.35;;;26.60;42.70;;;;;;5060496;28;20059;-66
2022/07/27 09:19:57;;;;;;;1.80;1.42;;;26.60;42.10;;;;;;5062236;28;20051;-64
2022/07/27 09:22:45;;;;;;;2.50;1.45;;;26.60;42.20;;;;;;5027274;28;20055;-65
2022/07/27 09:25:15;;;;;;;3.30;1.50;;;26.60;42.30;;;;;;5047339;28;20041;-66
2022/07/27 09:27:42;;;;;;;3.60;1.52;;;26.60;42.20;;;;;;5056732;28;20022;-66
2022/07/27 09:30:14;;;;;;;2.53;1.63;;;26.60;43.00;;;;;;5062309;28;20484;-65
2022/07/27 09:32:55;;;;;;;3.17;1.67;;;26.60;42.40;;;;;;5045847;28;20025;-65
2022/07/27 09:35:24;;;;;;;8.45;1.50;;;26.70;41.60;;;;;;5062066;28;20020;-65
2022/07/27 09:37:49;;;;;;;7.80;1.45;;;26.70;42.10;;;;;;5047322;28;20021;-66
2022/07/27 09:40:18;;;;;;;5.45;1.60;;;26.80;42.80;;;;;;5062017;28;20319;-67
2022/07/27 09:42:44;;;;;;;3.45;1.23;;;26.90;42.40;;;;;;5041169;28;20033;-66
2022/07/27 09:45:31;;;;;;;2.00;1.10;;;27.00;41.60;;;;;;5059842;28;20124;-66
2022/07/27 09:48:19;;;;;;;3.92;1.40;;;27.10;41.00;;;;;;5041196;28;20033;-66
2022/07/27 09:50:57;;;;;;;2.92;1.10;;;27.10;41.10;;;;;;5022221;28;20034;-65
2022/07/27 09:53:25;;;;;;;7.40;1.58;;;27.20;39.60;;;;;;5042351;28;20037;-67
2022/07/27 09:55:59;;;;;;;6.40;1.45;;;27.40;41.10;;;;;;5054651;28;20462;-66
2022/07/27 09:58:42;;;;;;;4.25;1.40;;;27.60;41.10;;;;;;5061151;28;20033;-67
2022/07/27 10:01:20;;;;;;;2.72;1.25;;;27.80;39.90;;;;;;5027181;28;20030;-66
2022/07/27 10:03:48;;;;;;;5.88;1.60;;;28.00;39.30;;;;;;5047076;28;20038;-66
2022/07/27 10:06:14;;;;;;;3.35;2.10;;;28.20;39.90;;;;;;5061362;28;20450;-66
2022/07/27 10:08:45;;;;;;;3.05;1.42;;;28.40;40.10;;;;;;5041105;28;20034;-66
2022/07/27 10:11:12;;;;;;;6.43;1.27;;;28.50;39.60;;;;;;5020727;28;20053;-66
2022/07/27 10:13:38;;;;;;;3.28;1.25;;;28.60;39.10;;;;;;5039261;28;20034;-66
2022/07/27 10:16:05;;;;;;;6.82;1.15;;;28.70;40.10;;;;;;5060810;28;20044;-64
2022/07/27 10:19:06;;;;;;;6.15;1.30;;;28.80;39.20;;;;;;5031024;28;20034;-67
2022/07/27 10:21:34;;;;;;;6.13;1.20;;;28.90;38.40;;;;;;5061728;28;20049;-66
2022/07/27 10:24:09;;;;;;;2.40;1.30;;;29.00;38.40;;;;;;5034760;28;20040;-66
2022/07/27 10:26:39;;;;;;;2.88;1.13;;;29.00;37.90;;;;;;5061749;28;20120;-67
2022/07/27 10:29:17;;;;;;;1.88;1.08;;;29.10;38.80;;;;;;5035667;28;20128;-66
2022/07/27 10:31:59;;;;;;;3.20;1.00;;;29.20;37.90;;;;;;5060696;28;20032;-64
2022/07/27 10:34:41;;;;;;;4.28;1.02;;;29.40;36.40;;;;;;5038379;28;20026;-66
2022/07/27 10:37:08;;;;;;;2.08;0.90;;;29.50;35.20;;;;;;5020185;28;20048;-65
2022/07/27 10:39:37;;;;;;;2.63;1.20;;;29.50;36.20;;;;;;5040628;28;20025;-67
2022/07/27 10:42:19;;;;;;;2.58;1.30;;;29.50;35.70;;;;;;5059569;28;20049;-65
2022/07/27 10:44:56;;;;;;;1.80;1.15;;;29.40;35.00;;;;;;5063316;28;20041;-63
2022/07/27 10:47:30;;;;;;;3.00;1.20;;;29.30;35.00;;;;;;5044260;28;20045;-65
2022/07/27 10:50:14;;;;;;;3.92;1.30;;;29.10;34.70;;;;;;5065134;28;20060;-66
2022/07/27 10:52:41;;;;;;;4.32;1.30;;;28.90;34.60;;;;;;5044343;28;20412;-66
2022/07/27 10:55:07;;;;;;;2.92;1.10;;;28.70;35.60;;;;;;5044883;28;20054;-63
2022/07/27 10:57:35;;;;;;;6.88;1.85;;;28.60;36.70;;;;;;5063123;28;20021;-66
2022/07/27 11:00:08;;;;;;;4.32;1.38;;;28.60;36.90;;;;;;5065066;28;20052;-67
2022/07/27 11:02:39;;;;;;;4.13;1.80;;;28.60;36.60;;;;;;5025794;28;20519;-66
2022/07/27 11:05:06;;;;;;;2.78;1.20;;;28.60;35.80;;;;;;5064363;28;20310;-66
2022/07/27 11:07:32;;;;;;;3.20;1.10;;;28.70;35.70;;;;;;5045182;28;20033;-66
2022/07/27 11:10:00;;;;;;;1.70;0.93;;;28.70;35.50;;;;;;5063897;28;20369;-66
2022/07/27 11:12:28;;;;;;;1.13;0.82;;;28.70;35.40;;;;;;5063054;28;20151;-65
2022/07/27 11:14:56;;;;;;;2.13;0.93;;;28.70;35.10;;;;;;5027002;28;20030;-64
2022/07/27 11:17:26;;;;;;;2.53;0.70;;;28.80;35.00;;;;;;5058978;28;20095;-65
2022/07/27 11:19:57;;;;;;;1.75;1.00;;;28.80;34.50;;;;;;5024694;28;20103;-65
2022/07/27 11:22:37;;;;;;;1.30;1.05;;;29.00;34.70;;;;;;5062240;28;20021;-65
2022/07/27 11:25:05;;;;;;;6.07;0.90;;;29.10;34.80;;;;;;5063398;28;20067;-67
2022/07/27 11:27:31;;;;;;;2.90;0.98;;;29.30;35.10;;;;;;5042245;28;20025;-66
2022/07/27 11:29:57;;;;;;;1.05;0.85;;;29.40;35.70;;;;;;5064262;28;20061;-66
2022/07/27 11:32:23;;;;;;;2.22;1.00;;;29.50;35.10;;;;;;5044980;28;20033;-65
2022/07/27 11:34:49;;;;;;;2.17;1.05;;;29.70;34.90;;;;;;5043339;28;20036;-66
2022/07/27 11:37:18;;;;;;;4.13;1.00;;;29.80;34.70;;;;;;5063068;28;20043;-65
2022/07/27 11:39:44;;;;;;;3.10;1.02;;;29.90;34.10;;;;;;5044422;28;20590;-66
2022/07/27 11:42:10;;;;;;;5.53;1.00;;;29.90;33.70;;;;;;5052845;28;20100;-65
2022/07/27 11:44:37;;;;;;;1.23;0.88;;;29.90;33.30;;;;;;5028030;28;20501;-66
2022/07/27 11:47:03;;;;;;;0.88;0.80;;;29.80;33.20;;;;;;5063042;28;20530;-65
2022/07/27 11:49:31;;;;;;;3.55;0.60;;;29.70;32.90;;;;;;5043330;28;20113;-65
2022/07/27 11:52:07;;;;;;;1.50;0.82;;;29.70;33.00;;;;;;5063759;28;20043;-67
2022/07/27 11:54:40;;;;;;;0.95;0.73;;;29.70;32.40;;;;;;5039390;28;20032;-65
2022/07/27 11:57:15;;;;;;;1.70;0.93;;;29.60;32.00;;;;;;5024094;28;20398;-66
2022/07/27 11:59:42;;;;;;;5.35;1.20;;;29.60;32.50;;;;;;5041525;28;20284;-64
2022/07/27 12:02:09;;;;;;;1.70;0.80;;;29.60;33.10;;;;;;5063553;28;20033;-63
2022/07/27 12:04:37;;;;;;;1.77;0.90;;;29.60;32.60;;;;;;5046089;28;20044;-66
2022/07/27 12:07:20;;;;;;;2.00;0.70;;;29.60;32.20;;;;;;5062294;28;20508;-67
2022/07/27 12:09:53;;;;;;;0.90;0.80;;;29.50;32.00;;;;;;5040382;28;20021;-65
2022/07/27 12:12:26;;;;;;;1.63;1.00;;;29.40;32.40;;;;;;5063402;28;20037;-64
2022/07/27 12:14:56;;;;;;;2.65;0.85;;;29.30;32.60;;;;;;5042228;28;20052;-64
2022/07/27 12:17:33;;;;;;;4.72;1.20;;;29.20;32.60;;;;;;5062785;28;20028;-65
2022/07/27 12:20:07;;;;;;;3.97;1.35;;;29.20;33.50;;;;;;5023695;28;20608;-66
2022/07/27 12:22:38;;;;;;;2.47;1.00;;;29.30;33.70;;;;;;5029430;28;20033;-65
2022/07/27 12:25:10;;;;;;;1.08;0.90;;;29.30;32.90;;;;;;4978606;28;20504;-65
2022/07/27 12:27:37;;;;;;;1.88;1.00;;;29.20;33.20;;;;;;5062121;28;20032;-65
2022/07/27 12:30:12;;;;;;;1.48;1.13;;;29.20;33.10;;;;;;5042411;28;20033;-66
2022/07/27 12:32:43;;;;;;;5.25;0.93;;;29.10;32.80;;;;;;5023637;28;20092;-66
2022/07/27 12:35:16;;;;;;;1.83;0.80;;;29.00;33.20;;;;;;5023304;28;20030;-64
2022/07/27 12:37:42;;;;;;;3.20;1.00;;;29.00;33.20;;;;;;5062811;28;20059;-66
2022/07/27 12:40:18;;;;;;;1.33;1.00;;;29.00;34.00;;;;;;5059396;28;20127;-65
2022/07/27 12:42:45;;;;;;;3.70;1.00;;;29.10;33.70;;;;;;5022195;28;20069;-63
2022/07/27 12:45:16;;;;;;;2.42;0.95;;;29.40;33.50;;;;;;5023285;28;20030;-64
2022/07/27 12:47:42;;;;;;;3.47;0.98;;;29.50;33.50;;;;;;5023283;28;20044;-65
2022/07/27 12:50:25;;;;;;;2.03;0.98;;;29.60;33.70;;;;;;5061294;28;20116;-62
2022/07/27 12:52:52;;;;;;;1.70;0.80;;;29.80;33.20;;;;;;5023414;28;20427;-65